Time;durP1;ratioP1;P1;durP2;ratioP2;P2;SDS_P1;SDS_P2;PMS_P1;PMS_P2;Temp;Humidity;BMP_temperature;BMP_pressure;BME280_temperature;BME280_humidity;BME280_pressure;Samples;Min_cycle;Max_cycle;Signal;HPM_P1;HPM_P2
2022/06/22 00:01:44;;;;;;;;;;;;;;;15.41;100.00;98945.97;5074403;28;19998;-78
2022/06/22 00:04:16;;;;;;;;;;;;;;;15.53;100.00;98956.38;5075375;28;19947;-78
2022/06/22 00:06:45;;;;;;;;;;;;;;;15.76;100.00;98953.09;5074371;28;19931;-78
2022/06/22 00:09:33;;;;;;;;;;;;;;;15.94;100.00;98956.00;5075468;28;19929;-78
2022/06/22 00:12:00;;;;;;;;;;;;;;;15.70;100.00;98957.75;5057750;28;20133;-78
2022/06/22 00:14:48;;;;;;;;;;;;;;;15.82;100.00;98961.72;5068804;28;19975;-78
2022/06/22 00:17:31;;;;;;;;;;;;;;;14.86;100.00;98960.03;5053980;28;20389;-78
2022/06/22 00:20:07;;;;;;;;;;;;;;;14.74;100.00;98956.00;5055320;28;19930;-78
2022/06/22 00:22:54;;;;;;;;;;;;;;;15.46;100.00;98953.84;5055169;28;20019;-78
2022/06/22 00:25:33;;;;;;;;;;;;;;;15.74;100.00;98952.75;5054370;28;19924;-78
2022/06/22 00:28:19;;;;;;;;;;;;;;;15.94;100.00;98943.94;5055934;28;20280;-78
2022/06/22 00:30:46;;;;;;;;;;;;;;;15.76;100.00;98944.63;5053666;28;20014;-78
2022/06/22 00:33:21;;;;;;;;;;;;;;;14.55;100.00;98939.41;5070573;28;19925;-78
2022/06/22 00:35:51;;;;;;;;;;;;;;;15.09;100.00;98935.06;5087191;28;20343;-78
2022/06/22 00:38:21;;;;;;;;;;;;;;;15.57;100.00;98931.69;5075042;28;20343;-78
2022/06/22 00:40:54;;;;;;;;;;;;;;;15.68;100.00;98926.44;5073642;28;20011;-78
2022/06/22 00:43:40;;;;;;;;;;;;;;;15.66;100.00;98926.09;5074902;28;20371;-78
2022/06/22 00:46:25;;;;;;;;;;;;;;;15.17;100.00;98930.75;5073926;28;19931;-78
2022/06/22 00:48:54;;;;;;;;;;;;;;;14.39;100.00;98929.06;5073431;28;19924;-78
2022/06/22 00:51:34;;;;;;;;;;;;;;;15.17;100.00;98927.16;5074654;28;19994;-78
2022/06/22 00:54:10;;;;;;;;;;;;;;;15.47;100.00;98926.44;5057046;28;19924;-78
2022/06/22 00:56:50;;;;;;;;;;;;;;;15.67;100.00;98919.25;5074492;28;20268;-78
2022/06/22 00:59:20;;;;;;;;;;;;;;;15.64;100.00;98914.53;5073402;28;19924;-78
2022/06/22 01:01:52;;;;;;;;;;;;;;;15.87;100.00;98910.41;5089837;28;20042;-78
2022/06/22 01:04:19;;;;;;;;;;;;;;;15.98;100.00;98900.28;5074589;28;19947;-78
2022/06/22 01:06:50;;;;;;;;;;;;;;;16.10;100.00;98902.19;5072958;28;19931;-78
2022/06/22 01:09:24;;;;;;;;;;;;;;;16.17;100.00;98906.78;5073158;28;19924;-78
2022/06/22 01:12:36;;;;;;;;;;;;;;;16.27;100.00;98897.88;5073158;28;19928;-78
2022/06/22 01:14:44;;;;;;;;;;;;;;;16.27;100.00;98893.50;5066711;28;20260;-78
2022/06/22 01:17:25;;;;;;;;;;;;;;;14.84;100.00;98900.63;5089969;28;19924;-78
2022/06/22 01:20:05;;;;;;;;;;;;;;;14.95;100.00;98904.63;5074350;28;19925;-78
2022/06/22 01:22:51;;;;;;;;;;;;;;;15.38;100.00;98896.22;5074063;28;20359;-78
2022/06/22 01:25:42;;;;;;;;;;;;;;;15.19;100.00;98883.22;5074378;28;20422;-78
2022/06/22 01:28:13;;;;;;;;;;;;;;;14.78;100.00;98892.00;5070976;28;19932;-78
2022/06/22 01:30:41;;;;;;;;;;;;;;;15.08;100.00;98896.91;5073842;28;19925;-78
2022/06/22 01:33:15;;;;;;;;;;;;;;;15.20;100.00;98898.09;5039872;28;19930;-78
2022/06/22 01:35:42;;;;;;;;;;;;;;;14.28;100.00;98901.31;5074125;28;19960;-78
2022/06/22 01:38:14;;;;;;;;;;;;;;;14.71;100.00;98888.66;5074056;28;19932;-78
2022/06/22 01:40:46;;;;;;;;;;;;;;;14.92;100.00;98899.91;5073926;28;19964;-78
2022/06/22 01:43:34;;;;;;;;;;;;;;;14.64;100.00;98884.06;5072889;28;19925;-78
2022/06/22 01:46:07;;;;;;;;;;;;;;;14.77;100.00;98900.88;5072454;28;19934;-78
2022/06/22 01:48:40;;;;;;;;;;;;;;;14.75;100.00;98897.72;5072615;28;20248;-78
2022/06/22 01:51:17;;;;;;;;;;;;;;;13.85;100.00;98903.13;5074004;28;19947;-78
2022/06/22 01:53:56;;;;;;;;;;;;;;;14.30;100.00;98906.50;5072788;28;20035;-78
2022/06/22 01:56:39;;;;;;;;;;;;;;;14.55;100.00;98900.84;5072575;28;19924;-78
2022/06/22 01:59:24;;;;;;;;;;;;;;;14.59;100.00;98907.09;5073753;28;19928;-78
2022/06/22 02:02:01;;;;;;;;;;;;;;;14.39;100.00;98893.34;5073777;28;20478;-78
2022/06/22 02:04:47;;;;;;;;;;;;;;;14.46;100.00;98886.69;5089180;28;19932;-78
2022/06/22 02:10:26;;;;;;;;;;;;;;;14.28;100.00;98894.94;5055927;28;20327;-78
2022/06/22 02:13:00;;;;;;;;;;;;;;;14.07;100.00;98892.81;5088793;28;19929;-78
2022/06/22 02:15:39;;;;;;;;;;;;;;;13.72;100.00;98900.31;5073724;28;19931;-78
2022/06/22 02:18:19;;;;;;;;;;;;;;;13.79;100.00;98893.69;5073681;28;19970;-78
2022/06/22 02:20:46;;;;;;;;;;;;;;;14.16;100.00;98902.09;5073789;28;20375;-78
2022/06/22 02:23:20;;;;;;;;;;;;;;;14.30;100.00;98889.63;5055961;28;19924;-77
2022/06/22 02:25:52;;;;;;;;;;;;;;;14.55;100.00;98888.78;5073935;28;20023;-78
2022/06/22 02:28:19;;;;;;;;;;;;;;;14.69;100.00;98877.06;5109840;28;20019;-78
2022/06/22 02:30:46;;;;;;;;;;;;;;;14.50;100.00;98873.28;5077257;28;19932;-78
2022/06/22 02:33:13;;;;;;;;;;;;;;;14.48;100.00;98868.13;5076113;28;19924;-78
2022/06/22 02:35:42;;;;;;;;;;;;;;;14.39;100.00;98875.66;5076083;28;20375;-78
2022/06/22 02:38:11;;;;;;;;;;;;;;;14.28;100.00;98859.16;5109748;28;20380;-78
2022/06/22 02:46:15;;;;;;;;;;;;;;;13.94;100.00;98866.72;5076928;28;20018;-78
2022/06/22 02:48:44;;;;;;;;;;;;;;;13.36;100.00;98868.94;5076778;28;20017;-78
2022/06/22 02:51:17;;;;;;;;;;;;;;;13.29;100.00;98874.00;5075674;28;19936;-78
2022/06/22 02:53:45;;;;;;;;;;;;;;;13.83;100.00;98878.31;5075578;28;19924;-78
2022/06/22 02:56:25;;;;;;;;;;;;;;;14.11;100.00;98882.22;5076457;28;19924;-78
2022/06/22 02:58:52;;;;;;;;;;;;;;;13.53;100.00;98869.66;5109476;28;20252;-78
2022/06/22 03:01:22;;;;;;;;;;;;;;;13.25;100.00;98878.94;5076655;28;19925;-78
2022/06/22 03:03:55;;;;;;;;;;;;;;;13.78;100.00;98869.66;5075382;28;19951;-78
2022/06/22 03:06:25;;;;;;;;;;;;;;;13.91;100.00;98874.03;5075382;28;19925;-78
2022/06/22 03:08:53;;;;;;;;;;;;;;;13.53;100.00;98869.66;5076468;28;19928;-78
2022/06/22 03:11:21;;;;;;;;;;;;;;;13.60;100.00;98875.06;5076249;28;19928;-78
2022/06/22 03:13:54;;;;;;;;;;;;;;;13.73;100.00;98873.81;5076427;28;19924;-77
2022/06/22 03:16:29;;;;;;;;;;;;;;;13.89;100.00;98870.09;5075268;28;19929;-78
2022/06/22 03:19:00;;;;;;;;;;;;;;;13.89;100.00;98876.50;5075291;28;19931;-78
2022/06/22 03:21:27;;;;;;;;;;;;;;;13.59;100.00;98879.06;5075033;28;20272;-78
2022/06/22 03:26:36;;;;;;;;;;;;;;;13.39;100.00;98886.94;5091162;28;20371;-78
2022/06/22 03:29:08;;;;;;;;;;;;;;;13.11;100.00;98887.75;5090505;28;19931;-78
2022/06/22 03:31:49;;;;;;;;;;;;;;;13.27;100.00;98884.91;5091384;28;19925;-79
2022/06/22 03:34:28;;;;;;;;;;;;;;;13.50;100.00;98887.38;5091479;28;19924;-79
2022/06/22 03:37:09;;;;;;;;;;;;;;;13.66;100.00;98884.50;5106791;28;19924;-79
2022/06/22 03:39:38;;;;;;;;;;;;;;;13.69;100.00;98877.97;5091242;28;19928;-79
2022/06/22 03:42:09;;;;;;;;;;;;;;;13.72;100.00;98880.66;5090226;28;19969;-79
2022/06/22 03:44:50;;;;;;;;;;;;;;;13.55;100.00;98884.03;5091175;28;20018;-79
2022/06/22 03:47:30;;;;;;;;;;;;;;;13.15;100.00;98885.63;5091033;28;19924;-78
2022/06/22 03:49:57;;;;;;;;;;;;;;;12.74;100.00;98886.34;5072977;28;20351;-78
2022/06/22 03:52:56;;;;;;;;;;;;;;;12.82;100.00;98900.97;5073117;28;19930;-79
2022/06/22 03:55:27;;;;;;;;;;;;;;;11.98;100.00;98901.94;5068302;28;20547;-78
2022/06/22 03:57:55;;;;;;;;;;;;;;;12.02;100.00;98913.84;5068505;28;19977;-78
2022/06/22 04:00:23;;;;;;;;;;;;;;;12.01;100.00;98906.66;5051693;28;19976;-78
2022/06/22 04:02:50;;;;;;;;;;;;;;;12.54;100.00;98908.13;5051710;28;19944;-78
2022/06/22 04:05:21;;;;;;;;;;;;;;;13.06;100.00;98908.72;5068145;28;19967;-78
2022/06/22 04:07:49;;;;;;;;;;;;;;;13.33;100.00;98911.16;5068095;28;20414;-78
2022/06/22 04:10:48;;;;;;;;;;;;;;;13.34;100.00;98912.72;5051247;28;19928;-78
2022/06/22 04:13:23;;;;;;;;;;;;;;;12.65;100.00;98917.84;5019513;28;20482;-78
2022/06/22 04:15:57;;;;;;;;;;;;;;;12.14;100.00;98926.38;5051544;28;20022;-78
2022/06/22 04:18:31;;;;;;;;;;;;;;;11.99;100.00;98920.31;5067822;28;19924;-78
2022/06/22 04:21:02;;;;;;;;;;;;;;;11.46;100.00;98912.31;5051267;28;19935;-78
2022/06/22 04:23:52;;;;;;;;;;;;;;;11.62;100.00;98920.78;5067620;28;19925;-78
2022/06/22 04:26:22;;;;;;;;;;;;;;;12.58;100.00;98906.81;5057714;28;19935;-78
2022/06/22 04:28:52;;;;;;;;;;;;;;;13.01;100.00;98912.06;5051111;28;19925;-78
2022/06/22 04:31:26;;;;;;;;;;;;;;;12.98;100.00;98912.91;5081387;28;20371;-78
2022/06/22 04:33:58;;;;;;;;;;;;;;;12.98;100.00;98903.72;5090184;28;19928;-78
2022/06/22 04:36:40;;;;;;;;;;;;;;;13.24;100.00;98911.03;5117203;28;19931;-78
2022/06/22 04:39:15;;;;;;;;;;;;;;;12.53;100.00;98906.53;5108892;28;19924;-79
2022/06/22 04:41:43;;;;;;;;;;;;;;;12.58;100.00;98909.63;5075163;28;20386;-79
2022/06/22 04:44:11;;;;;;;;;;;;;;;12.93;100.00;98904.28;5076498;28;19925;-78
2022/06/22 04:46:41;;;;;;;;;;;;;;;13.44;100.00;98900.41;5076414;28;20390;-78
2022/06/22 04:49:17;;;;;;;;;;;;;;;13.87;100.00;98895.06;5076390;28;19967;-79
2022/06/22 04:51:47;;;;;;;;;;;;;;;14.03;100.00;98892.13;5075146;28;20295;-78
2022/06/22 04:54:21;;;;;;;;;;;;;;;14.18;100.00;98898.84;5076238;28;19925;-78
2022/06/22 04:56:50;;;;;;;;;;;;;;;14.24;100.00;98902.69;5074697;28;19929;-78
2022/06/22 04:59:18;;;;;;;;;;;;;;;13.42;100.00;98908.50;5076107;28;19924;-79
2022/06/22 05:01:51;;;;;;;;;;;;;;;12.86;100.00;98910.84;5076151;28;19958;-78
2022/06/22 05:04:22;;;;;;;;;;;;;;;12.72;100.00;98908.47;5073528;28;19924;-78
2022/06/22 05:06:55;;;;;;;;;;;;;;;12.91;100.00;98926.34;5056428;28;20020;-78
2022/06/22 05:09:42;;;;;;;;;;;;;;;13.61;100.00;98918.72;5062521;28;19928;-78
2022/06/22 05:12:16;;;;;;;;;;;;;;;13.97;100.00;98922.00;5064431;28;20023;-78
2022/06/22 05:14:44;;;;;;;;;;;;;;;14.19;100.00;98925.72;5075071;28;19975;-78
2022/06/22 05:17:27;;;;;;;;;;;;;;;14.27;100.00;98922.25;5078509;28;19993;-78
2022/06/22 05:19:58;;;;;;;;;;;;;;;14.38;100.00;98931.13;5065613;28;19955;-78
2022/06/22 05:22:26;;;;;;;;;;;;;;;14.46;100.00;98934.47;5067591;28;20302;-78
2022/06/22 05:24:57;;;;;;;;;;;;;;;14.65;100.00;98935.44;5078483;28;19930;-78
2022/06/22 05:27:26;;;;;;;;;;;;;;;14.84;100.00;98935.16;5074333;28;19928;-78
2022/06/22 05:29:57;;;;;;;;;;;;;;;15.08;100.00;98930.69;5071900;28;20001;-78
2022/06/22 05:32:45;;;;;;;;;;;;;;;15.23;100.00;98940.19;5074710;28;19924;-79
2022/06/22 05:35:21;;;;;;;;;;;;;;;15.31;100.00;98941.47;5075375;28;19925;-78
2022/06/22 05:37:51;;;;;;;;;;;;;;;15.43;100.00;98946.31;5070702;28;19929;-78
2022/06/22 05:40:21;;;;;;;;;;;;;;;15.31;100.00;98938.66;5057310;28;20019;-78
2022/06/22 05:42:51;;;;;;;;;;;;;;;15.52;100.00;98935.09;5075197;28;19924;-78
2022/06/22 05:45:27;;;;;;;;;;;;;;;15.74;100.00;98940.69;5064669;28;19929;-77
2022/06/22 05:48:25;;;;;;;;;;;;;;;15.95;100.00;98940.66;5115859;27;19920;-80
2022/06/22 05:50:59;;;;;;;;;;;;;;;16.19;100.00;98944.50;5093468;28;19924;-79
2022/06/22 05:53:27;;;;;;;;;;;;;;;16.15;100.00;98943.88;5111914;28;19931;-80
2022/06/22 05:56:12;;;;;;;;;;;;;;;16.90;100.00;98935.94;5094106;28;20248;-80
2022/06/22 05:58:58;;;;;;;;;;;;;;;17.49;100.00;98938.91;5060458;28;19973;-80
2022/06/22 06:01:30;;;;;;;;;;;;;;;18.19;100.00;98934.78;5093832;28;19931;-80
2022/06/22 06:03:58;;;;;;;;;;;;;;;18.65;100.00;98927.66;5093594;28;19947;-80
2022/06/22 06:06:27;;;;;;;;;;;;;;;18.67;100.00;98919.50;5111279;28;19924;-80
2022/06/22 06:08:54;;;;;;;;;;;;;;;18.61;100.00;98927.06;5108469;28;20251;-80
2022/06/22 06:11:24;;;;;;;;;;;;;;;18.53;100.00;98936.38;5081824;28;20007;-80
2022/06/22 06:13:59;;;;;;;;;;;;;;;18.47;100.00;98929.81;5073172;28;19928;-80
2022/06/22 06:16:42;;;;;;;;;;;;;;;18.99;100.00;98927.09;5072912;28;20516;-81
2022/06/22 06:19:10;;;;;;;;;;;;;;;19.38;100.00;98934.38;5072708;28;19924;-81
2022/06/22 06:21:38;;;;;;;;;;;;;;;19.75;100.00;98925.50;5091258;28;19932;-81
2022/06/22 06:24:14;;;;;;;;;;;;;;;19.71;100.00;98925.69;5091309;28;20370;-81
2022/06/22 06:29:58;;;;;;;;;;;;;;;19.22;100.00;98917.78;5072881;28;19931;-79
2022/06/22 06:32:29;;;;;;;;;;;;;;;19.33;100.00;98929.38;5070747;28;20359;-81
2022/06/22 06:35:11;;;;;;;;;;;;;;;19.46;100.00;98921.38;5090729;28;19928;-80
2022/06/22 06:37:46;;;;;;;;;;;;;;;19.50;100.00;98919.16;5073118;28;20013;-81
2022/06/22 06:40:22;;;;;;;;;;;;;;;19.40;100.00;98931.81;5090716;28;20536;-81
2022/06/22 06:42:54;;;;;;;;;;;;;;;19.45;100.00;98939.66;5056185;28;19932;-81
2022/06/22 06:46:39;;;;;;;;;;;;;;;19.36;100.00;98936.91;5091622;28;19913;-82
2022/06/22 06:49:09;;;;;;;;;;;;;;;19.56;100.00;98945.53;5089560;28;19924;-81
2022/06/22 06:51:38;;;;;;;;;;;;;;;19.70;100.00;98939.06;5092292;28;19948;-81
2022/06/22 06:54:10;;;;;;;;;;;;;;;19.85;100.00;98938.31;5107298;28;19956;-81
2022/06/22 06:56:51;;;;;;;;;;;;;;;20.28;100.00;98937.53;5089525;28;19971;-78
2022/06/22 06:59:24;;;;;;;;;;;;;;;21.38;100.00;98933.38;5090074;28;19925;-78
2022/06/22 07:01:52;;;;;;;;;;;;;;;23.21;100.00;98927.03;5091066;28;20256;-79
2022/06/22 07:04:32;;;;;;;;;;;;;;;25.29;100.00;98908.34;5090874;28;19991;-78
2022/06/22 07:07:13;;;;;;;;;;;;;;;27.10;100.00;98901.63;5091140;28;19925;-78
2022/06/22 07:09:41;;;;;;;;;;;;;;;28.64;100.00;98887.81;5090956;28;20402;-78
2022/06/22 07:12:27;;;;;;;;;;;;;;;29.73;100.00;98874.56;5089729;28;20019;-78
2022/06/22 07:14:55;;;;;;;;;;;;;;;30.85;100.00;98871.97;5090842;28;19925;-79
2022/06/22 07:17:23;;;;;;;;;;;;;;;30.95;100.00;98860.66;5089493;28;19931;-79
2022/06/22 07:20:04;;;;;;;;;;;;;;;28.44;100.00;98874.06;5090654;28;20018;-76
2022/06/22 07:22:36;;;;;;;;;;;;;;;30.21;100.00;98867.38;5089491;28;19924;-76
2022/06/22 07:25:12;;;;;;;;;;;;;;;31.24;100.00;98844.84;5089442;28;20344;-76
2022/06/22 07:27:42;;;;;;;;;;;;;;;31.28;100.00;98837.38;5088858;28;19951;-76
2022/06/22 07:30:16;;;;;;;;;;;;;;;31.02;100.00;98834.72;5090443;28;19925;-77
2022/06/22 07:33:02;;;;;;;;;;;;;;;30.82;100.00;98834.81;5089208;28;19955;-76
2022/06/22 07:35:33;;;;;;;;;;;;;;;29.28;100.00;98843.09;5089607;28;19935;-79
2022/06/22 07:38:19;;;;;;;;;;;;;;;29.22;100.00;98841.69;5090119;28;19924;-78
2022/06/22 07:43:33;;;;;;;;;;;;;;;27.43;100.00;98841.00;5088763;28;19978;-79
2022/06/22 07:46:01;;;;;;;;;;;;;;;27.58;100.00;98842.03;5088435;28;19974;-78
2022/06/22 07:48:31;;;;;;;;;;;;;;;28.43;100.00;98849.50;5088460;28;19963;-79
2022/06/22 07:51:00;;;;;;;;;;;;;;;29.07;100.00;98833.63;5071651;28;19955;-79
2022/06/22 07:53:40;;;;;;;;;;;;;;;29.00;100.00;98834.28;5088922;28;19928;-79
2022/06/22 07:56:13;;;;;;;;;;;;;;;29.05;100.00;98839.16;5084150;28;20363;-79
2022/06/22 07:58:40;;;;;;;;;;;;;;;29.05;100.00;98836.28;5076479;28;19924;-79
2022/06/22 08:01:16;;;;;;;;;;;;;;;29.50;100.00;98847.59;5076202;28;19928;-79
2022/06/22 08:03:46;;;;;;;;;;;;;;;29.43;100.00;98843.28;5058339;28;19928;-83
2022/06/22 08:06:20;;;;;;;;;;;;;;;29.69;100.00;98836.69;5074786;28;20279;-83
2022/06/22 08:08:53;;;;;;;;;;;;;;;30.54;100.00;98835.56;5074765;28;20364;-83
2022/06/22 08:11:25;;;;;;;;;;;;;;;30.21;100.00;98841.44;5076129;28;19936;-83
2022/06/22 08:13:56;;;;;;;;;;;;;;;30.24;100.00;98832.44;5058253;28;19955;-83
2022/06/22 08:16:30;;;;;;;;;;;;;;;30.42;100.00;98833.53;5074960;28;20027;-86
2022/06/22 08:18:59;;;;;;;;;;;;;;;29.05;100.00;98836.28;5058452;28;19928;-86
2022/06/22 08:21:27;;;;;;;;;;;;;;;26.98;100.00;98849.38;5058365;28;19967;-87
2022/06/22 08:23:57;;;;;;;;;;;;;;;26.35;100.00;98858.41;5058825;28;19924;-86
2022/06/22 08:26:27;;;;;;;;;;;;;;;26.71;100.00;98855.44;5074556;28;19971;-86
2022/06/22 08:28:55;;;;;;;;;;;;;;;25.43;100.00;98855.75;5075100;28;19924;-86
2022/06/22 08:31:26;;;;;;;;;;;;;;;24.79;100.00;98862.03;5091493;28;20440;-87
2022/06/22 08:34:00;;;;;;;;;;;;;;;24.35;100.00;98873.53;5074657;28;19970;-79
2022/06/22 08:36:29;;;;;;;;;;;;;;;24.46;100.00;98876.38;5075793;28;20017;-84
2022/06/22 08:39:00;;;;;;;;;;;;;;;24.20;100.00;98864.47;5074783;28;19973;-84
2022/06/22 08:41:42;;;;;;;;;;;;;;;23.35;100.00;98880.47;5057783;28;19924;-83
2022/06/22 08:44:18;;;;;;;;;;;;;;;23.97;100.00;98886.56;5074473;28;19929;-84
2022/06/22 08:46:51;;;;;;;;;;;;;;;23.56;100.00;98884.66;5075837;28;19931;-84
2022/06/22 08:49:28;;;;;;;;;;;;;;;24.28;100.00;98882.66;5075551;28;20302;-84
2022/06/22 08:52:03;;;;;;;;;;;;;;;24.43;100.00;98883.91;5076848;28;19938;-84
2022/06/22 08:54:40;;;;;;;;;;;;;;;23.58;100.00;98887.78;5057996;28;19924;-83
2022/06/22 08:57:18;;;;;;;;;;;;;;;23.70;100.00;98889.34;5058903;28;19924;-83
2022/06/22 08:59:51;;;;;;;;;;;;;;;23.84;100.00;98885.47;5021538;28;19956;-84
2022/06/22 09:02:23;;;;;;;;;;;;;;;23.45;100.00;98884.63;5073924;28;19924;-84
2022/06/22 09:05:14;;;;;;;;;;;;;;;23.70;100.00;98890.16;5074198;28;20353;-83
2022/06/22 09:08:00;;;;;;;;;;;;;;;24.34;100.00;98892.00;5073040;28;19929;-84
2022/06/22 09:10:28;;;;;;;;;;;;;;;23.77;100.00;98889.63;5057409;28;19929;-84
2022/06/22 09:13:25;;;;;;;;;;;;;;;24.15;100.00;98890.94;5075276;28;19964;-84
2022/06/22 09:16:14;;;;;;;;;;;;;;;24.03;100.00;98892.25;5048937;28;19924;-83
2022/06/22 09:19:00;;;;;;;;;;;;;;;25.09;100.00;98893.59;5057556;28;19924;-84
2022/06/22 09:21:31;;;;;;;;;;;;;;;24.78;100.00;98892.69;5074153;28;19974;-85
2022/06/22 09:24:04;;;;;;;;;;;;;;;24.20;100.00;98887.31;5074264;28;19924;-84
2022/06/22 09:26:34;;;;;;;;;;;;;;;24.39;100.00;98882.63;5056871;28;19928;-83
2022/06/22 09:29:13;;;;;;;;;;;;;;;25.73;100.00;98878.72;5074129;28;19928;-84
2022/06/22 09:31:47;;;;;;;;;;;;;;;25.40;100.00;98871.09;5057186;28;20429;-85
2022/06/22 09:34:41;;;;;;;;;;;;;;;25.78;100.00;98875.78;5075096;28;19928;-84
2022/06/22 09:37:21;;;;;;;;;;;;;;;26.44;100.00;98863.03;5070930;28;19933;-84
2022/06/22 09:39:48;;;;;;;;;;;;;;;25.51;100.00;98879.63;5072979;28;19925;-86
2022/06/22 09:42:21;;;;;;;;;;;;;;;26.26;100.00;98870.22;5073160;28;19950;-84
2022/06/22 09:44:55;;;;;;;;;;;;;;;26.26;100.00;98864.47;5039640;28;19971;-84
2022/06/22 09:47:29;;;;;;;;;;;;;;;25.74;100.00;98871.66;5056838;28;19924;-85
2022/06/22 09:50:11;;;;;;;;;;;;;;;25.77;100.00;98882.06;5056783;28;19936;-85
2022/06/22 09:52:52;;;;;;;;;;;;;;;26.24;100.00;98877.78;5073678;28;19924;-86
2022/06/22 09:58:23;;;;;;;;;;;;;;;26.45;100.00;98882.53;5072906;28;19931;-85
2022/06/22 10:00:54;;;;;;;;;;;;;;;25.89;100.00;98880.66;5073011;28;19924;-85
2022/06/22 10:03:39;;;;;;;;;;;;;;;25.62;100.00;98885.28;5039957;28;19950;-84
2022/06/22 10:06:25;;;;;;;;;;;;;;;25.57;100.00;98877.50;5072511;28;19955;-85
2022/06/22 10:09:19;;;;;;;;;;;;;;;26.07;100.00;98880.81;5056161;28;19932;-84
2022/06/22 10:11:50;;;;;;;;;;;;;;;25.79;100.00;98888.03;5089539;28;20379;-85
2022/06/22 10:14:18;;;;;;;;;;;;;;;25.25;100.00;98879.22;5056268;28;20403;-84
2022/06/22 10:16:55;;;;;;;;;;;;;;;24.79;100.00;98899.19;5056063;28;19929;-84
2022/06/22 10:19:41;;;;;;;;;;;;;;;24.79;100.00;98884.91;5072169;28;19928;-85
2022/06/22 10:22:18;;;;;;;;;;;;;;;24.55;100.00;98890.38;5073040;28;20063;-85
2022/06/22 10:25:06;;;;;;;;;;;;;;;23.96;100.00;98898.50;5056301;28;19924;-87
2022/06/22 10:28:06;;;;;;;;;;;;;;;23.83;100.00;98898.97;5055944;28;19924;-86
2022/06/22 10:30:49;;;;;;;;;;;;;;;24.25;100.00;98898.72;4983231;28;20067;-85
2022/06/22 10:33:34;;;;;;;;;;;;;;;24.09;100.00;98915.88;5015558;28;19975;-85
2022/06/22 10:36:17;;;;;;;;;;;;;;;23.95;100.00;98911.97;5015567;28;19965;-85
2022/06/22 10:39:01;;;;;;;;;;;;;;;24.07;100.00;98912.75;4998813;28;19929;-85
2022/06/22 10:47:28;;;;;;;;;;;;;;;24.58;100.00;98909.34;5015065;28;20373;-81
2022/06/22 10:50:07;;;;;;;;;;;;;;;24.23;100.00;98909.91;5015470;28;20463;-82
2022/06/22 10:53:00;;;;;;;;;;;;;;;24.93;100.00;98914.47;5014622;28;19925;-81
2022/06/22 10:55:40;;;;;;;;;;;;;;;24.02;100.00;98916.38;5015085;28;20024;-81
2022/06/22 10:58:37;;;;;;;;;;;;;;;23.91;100.00;98911.44;5031790;28;20408;-84
2022/06/22 11:01:08;;;;;;;;;;;;;;;24.27;100.00;98910.41;4992230;28;19933;-84
2022/06/22 11:03:51;;;;;;;;;;;;;;;24.52;100.00;98897.91;4992179;28;19939;-84
2022/06/22 11:06:21;;;;;;;;;;;;;;;24.52;100.00;98897.16;5023579;28;20406;-84
2022/06/22 11:08:51;;;;;;;;;;;;;;;24.33;100.00;98901.84;5018030;28;19933;-84
2022/06/22 11:11:37;;;;;;;;;;;;;;;24.26;100.00;98896.66;5034153;28;19995;-84
2022/06/22 11:14:09;;;;;;;;;;;;;;;24.30;100.00;98897.94;5034853;28;19925;-84
2022/06/22 11:16:43;;;;;;;;;;;;;;;23.84;100.00;98896.91;5034620;28;19929;-82
2022/06/22 11:19:13;;;;;;;;;;;;;;;23.95;100.00;98896.88;5034796;28;19959;-81
2022/06/22 11:22:01;;;;;;;;;;;;;;;23.90;100.00;98895.59;5067979;28;19959;-81
2022/06/22 11:24:48;;;;;;;;;;;;;;;24.60;100.00;98886.72;5005620;28;19975;-81
2022/06/22 11:32:59;;;;;;;;;;;;;;;23.88;100.00;98883.94;5038212;28;19924;-81
2022/06/22 11:35:45;;;;;;;;;;;;;;;24.15;100.00;98890.94;5038495;28;20364;-81
2022/06/22 11:38:13;;;;;;;;;;;;;;;24.49;100.00;98869.63;5066662;28;19924;-81
2022/06/22 11:40:45;;;;;;;;;;;;;;;24.52;100.00;98863.63;5077217;28;19925;-81
2022/06/22 11:43:42;;;;;;;;;;;;;;;24.81;100.00;98862.28;5077187;28;19935;-81
2022/06/22 11:46:22;;;;;;;;;;;;;;;23.97;100.00;98860.09;5002239;28;20432;-80
2022/06/22 11:48:56;;;;;;;;;;;;;;;24.68;100.00;98859.22;5002005;28;20380;-81
2022/06/22 11:51:23;;;;;;;;;;;;;;;24.79;100.00;98854.22;5018230;28;20383;-81
2022/06/22 11:54:09;;;;;;;;;;;;;;;24.33;100.00;98851.22;5018081;28;19956;-81
2022/06/22 11:56:55;;;;;;;;;;;;;;;24.36;100.00;98855.09;5034754;28;19925;-80
2022/06/22 11:59:28;;;;;;;;;;;;;;;23.90;100.00;98852.03;5001593;28;19925;-80
2022/06/22 12:02:14;;;;;;;;;;;;;;;24.52;100.00;98855.06;5035041;28;19932;-86
2022/06/22 12:04:51;;;;;;;;;;;;;;;24.41;100.00;98837.19;5018017;28;20016;-82
2022/06/22 12:07:25;;;;;;;;;;;;;;;23.96;100.00;98845.03;5018006;28;19932;-86
2022/06/22 12:10:09;;;;;;;;;;;;;;;24.31;100.00;98842.41;5018121;28;19965;-84
2022/06/22 12:12:56;;;;;;;;;;;;;;;24.62;100.00;98847.00;5017545;28;19925;-85
2022/06/22 12:15:30;;;;;;;;;;;;;;;24.76;100.00;98843.09;5015903;28;19929;-85
2022/06/22 12:18:17;;;;;;;;;;;;;;;24.79;100.00;98842.78;4999752;28;20360;-85
2022/06/22 12:20:57;;;;;;;;;;;;;;;24.42;100.00;98838.72;4992912;28;19969;-85
2022/06/22 12:23:42;;;;;;;;;;;;;;;24.46;100.00;98847.84;5040892;28;19929;-85
2022/06/22 12:26:16;;;;;;;;;;;;;;;24.97;100.00;98840.66;5036020;28;19956;-85
2022/06/22 12:28:43;;;;;;;;;;;;;;;24.41;100.00;98840.84;5035724;28;19970;-85
2022/06/22 12:31:18;;;;;;;;;;;;;;;23.87;100.00;98833.84;5017233;28;20060;-84
2022/06/22 12:34:09;;;;;;;;;;;;;;;23.87;100.00;98841.66;5035685;28;19931;-84
2022/06/22 12:36:39;;;;;;;;;;;;;;;23.80;100.00;98833.59;5028897;28;20023;-85
2022/06/22 12:39:13;;;;;;;;;;;;;;;23.63;100.00;98833.59;5036083;28;19925;-85
2022/06/22 12:42:00;;;;;;;;;;;;;;;23.87;100.00;98842.41;5052485;28;19964;-85
2022/06/22 12:44:53;;;;;;;;;;;;;;;23.84;100.00;98836.97;5019086;28;19975;-85
2022/06/22 12:47:52;;;;;;;;;;;;;;;24.19;100.00;98840.06;5035369;28;19925;-84
2022/06/22 12:50:44;;;;;;;;;;;;;;;23.53;100.00;98828.66;5019136;28;19925;-84
2022/06/22 12:53:21;;;;;;;;;;;;;;;23.71;100.00;98828.16;5035900;28;19925;-85
2022/06/22 12:55:52;;;;;;;;;;;;;;;24.10;100.00;98814.66;5051916;28;19955;-84
2022/06/22 12:58:29;;;;;;;;;;;;;;;23.89;100.00;98827.63;5049973;28;19931;-85
2022/06/22 13:00:59;;;;;;;;;;;;;;;24.42;100.00;98818.75;5073441;28;20330;-85
2022/06/22 13:03:29;;;;;;;;;;;;;;;23.85;100.00;98821.41;5056406;28;19932;-85
2022/06/22 13:05:56;;;;;;;;;;;;;;;23.79;100.00;98823.50;5056589;28;19928;-84
2022/06/22 13:08:26;;;;;;;;;;;;;;;23.98;100.00;98807.41;5040403;28;20006;-84
2022/06/22 13:11:02;;;;;;;;;;;;;;;24.47;100.00;98809.41;5090132;28;19928;-85
2022/06/22 13:13:59;;;;;;;;;;;;;;;24.33;100.00;98816.97;5056638;28;19925;-85
2022/06/22 13:16:47;;;;;;;;;;;;;;;24.44;100.00;98813.31;5043825;28;19924;-85
2022/06/22 13:19:33;;;;;;;;;;;;;;;24.26;100.00;98817.50;5074159;28;20280;-85
2022/06/22 13:22:23;;;;;;;;;;;;;;;24.49;100.00;98813.28;5072353;28;19924;-86
2022/06/22 13:25:06;;;;;;;;;;;;;;;24.16;100.00;98810.50;5039915;28;19924;-85
2022/06/22 13:27:52;;;;;;;;;;;;;;;24.38;100.00;98801.91;5056263;28;20011;-85
2022/06/22 13:30:27;;;;;;;;;;;;;;;24.23;100.00;98812.06;5072895;28;19931;-85
2022/06/22 13:33:00;;;;;;;;;;;;;;;24.70;100.00;98799.47;5072222;28;20391;-85
2022/06/22 13:35:31;;;;;;;;;;;;;;;24.11;100.00;98804.81;5072453;28;19930;-85
2022/06/22 13:38:17;;;;;;;;;;;;;;;24.33;100.00;98811.25;5058282;28;19925;-85
2022/06/22 13:41:05;;;;;;;;;;;;;;;24.52;100.00;98817.19;5055739;28;19928;-85
2022/06/22 13:43:43;;;;;;;;;;;;;;;24.83;100.00;98807.47;5045485;28;19971;-85
2022/06/22 13:46:29;;;;;;;;;;;;;;;24.94;100.00;98802.47;5073592;28;19924;-85
2022/06/22 13:49:09;;;;;;;;;;;;;;;25.01;100.00;98790.47;5055589;28;19935;-86
2022/06/22 13:51:55;;;;;;;;;;;;;;;25.11;100.00;98780.31;5072166;28;19932;-85
2022/06/22 13:54:31;;;;;;;;;;;;;;;25.02;100.00;98794.91;5055553;28;19978;-85